KCGF/CGF METAR and TAF weather

Enter ICAO airport designator
Station Type Date Time Source
KCGF METAR 2018/12/12 23:45 UTC NOAA

KCGF 122345Z 18008KT 20SM BKN060 OVC080 03/M04 A2994


Station Type Date Time Source
KCGF Decoded METAR 2018/12/12 23:45 UTC NOAA

Cleveland / Cuyahoga, OH, United States (KCGF) 41-34N 081-29W
Dec 12, 2018 - 06:45 PM EST / 2018.12.12 2345 UTC
Wind: from the S (180 degrees) at 9 MPH (8 KT):0
Visibility: 20 mile(s):0
Sky conditions: overcast
Temperature: 37 F (3 C)
Dew Point: 24 F (-4 C)
Relative Humidity: 59%
Pressure (altimeter): 29.94 in. Hg (1013 hPa)
ob: KCGF 122345Z 18008KT 20SM BKN060 OVC080 03/M04 A2994
cycle: 0

Station Type Date Time Source
KCGF TAF 2016/07/19 12:36 UTC NOAA

TAF KCGF 191136Z 1912/2012 VRB05KT P6SM SCT080
FM191400 33008KT P6SM SCT040
FM191900 35008KT P6SM SCT060
FM200000 04003KT P6SM SCT080
FM200700 14003KT P6SM SKC


Example: see airport list